Time;durP1;ratioP1;P1;durP2;ratioP2;P2;SDS_P1;SDS_P2;PMS_P1;PMS_P2;Temp;Humidity;BMP_temperature;BMP_pressure;BME280_temperature;BME280_humidity;BME280_pressure;Samples;Min_cycle;Max_cycle;Signal;HPM_P1;HPM_P2
2022/01/06 00:00:07;;;;;;;;;;;;;;;20.23;55.94;99913.28;5040306;28;4224;-78
2022/01/06 00:02:37;;;;;;;;;;;;;;;20.22;55.90;99917.56;5038352;28;4216;-78
2022/01/06 00:05:04;;;;;;;;;;;;;;;20.18;56.33;99915.31;5037906;28;4305;-78
2022/01/06 00:07:30;;;;;;;;;;;;;;;20.19;56.21;99925.38;5038583;28;4332;-78
2022/01/06 00:09:57;;;;;;;;;;;;;;;20.18;56.09;99921.06;5035833;28;4126;-77
2022/01/06 00:12:30;;;;;;;;;;;;;;;20.21;56.43;99927.59;5040283;28;4239;-78
2022/01/06 00:15:08;;;;;;;;;;;;;;;20.32;56.08;99932.25;5038053;28;4093;-78
2022/01/06 00:17:43;;;;;;;;;;;;;;;20.27;56.11;99934.28;5039696;28;4224;-78
2022/01/06 00:25:32;;;;;;;;;;;;;;;20.35;55.55;99941.69;5036194;28;4724;-78
2022/01/06 00:27:58;;;;;;;;;;;;;;;20.18;56.18;99934.66;5036032;28;4027;-78
2022/01/06 00:30:25;;;;;;;;;;;;;;;20.24;55.92;99944.22;5025272;28;4357;-80
2022/01/06 00:32:51;;;;;;;;;;;;;;;20.13;56.19;99945.28;5038938;28;4231;-80
2022/01/06 00:35:17;;;;;;;;;;;;;;;20.21;56.13;99967.84;5038219;28;4107;-80
2022/01/06 00:37:44;;;;;;;;;;;;;;;20.23;55.89;99982.28;5035657;28;4195;-80
2022/01/06 00:40:10;;;;;;;;;;;;;;;20.16;55.72;99987.09;5034197;28;4098;-79
2022/01/06 00:42:38;;;;;;;;;;;;;;;20.09;56.40;99986.16;5035516;28;4181;-80
2022/01/06 00:45:04;;;;;;;;;;;;;;;20.18;56.15;99992.16;5035753;28;4118;-80
2022/01/06 00:47:31;;;;;;;;;;;;;;;20.26;55.46;100015.44;5035590;28;4403;-79
2022/01/06 00:49:57;;;;;;;;;;;;;;;20.21;55.57;100014.56;5038895;28;4157;-79
2022/01/06 00:52:23;;;;;;;;;;;;;;;20.25;55.51;100022.59;5034797;28;4279;-79
2022/01/06 00:54:50;;;;;;;;;;;;;;;20.26;55.62;100032.69;5036656;28;4109;-80
2022/01/06 00:57:16;;;;;;;;;;;;;;;20.14;55.99;100032.28;5039003;28;4094;-80
2022/01/06 00:59:42;;;;;;;;;;;;;;;20.15;55.98;100045.22;5036519;28;4176;-79
2022/01/06 01:02:09;;;;;;;;;;;;;;;20.14;55.84;100046.66;5037130;28;3998;-79
2022/01/06 01:04:35;;;;;;;;;;;;;;;20.16;55.94;100061.81;5036283;28;4292;-79
2022/01/06 01:07:02;;;;;;;;;;;;;;;20.20;55.86;100064.84;5035823;28;4253;-79
2022/01/06 01:09:30;;;;;;;;;;;;;;;20.21;55.79;100065.56;5038109;28;6489;-79
2022/01/06 01:11:57;;;;;;;;;;;;;;;20.27;55.43;100057.13;5037519;28;4172;-81
2022/01/06 01:14:28;;;;;;;;;;;;;;;20.17;55.69;100065.44;5037698;28;4226;-80
2022/01/06 01:16:58;;;;;;;;;;;;;;;20.18;56.00;100066.88;5037286;28;4311;-81
2022/01/06 01:19:24;;;;;;;;;;;;;;;20.28;55.53;100078.75;5035909;28;4425;-80
2022/01/06 01:21:51;;;;;;;;;;;;;;;20.26;55.60;100084.44;5040029;28;4157;-80
2022/01/06 01:24:17;;;;;;;;;;;;;;;20.24;55.62;100099.44;5039833;28;4250;-81
2022/01/06 01:26:43;;;;;;;;;;;;;;;20.43;55.04;100092.22;5037416;28;5477;-80
2022/01/06 01:29:17;;;;;;;;;;;;;;;20.22;55.53;100108.00;5037982;28;6522;-80
2022/01/06 01:31:47;;;;;;;;;;;;;;;20.18;55.77;100113.63;5038579;28;5769;-80
2022/01/06 01:34:13;;;;;;;;;;;;;;;20.18;55.78;100107.88;5039549;28;4208;-80
2022/01/06 01:36:40;;;;;;;;;;;;;;;20.17;55.71;100122.91;5037671;28;4133;-80
2022/01/06 01:39:06;;;;;;;;;;;;;;;20.15;55.85;100117.09;5037345;28;4077;-80
2022/01/06 01:41:32;;;;;;;;;;;;;;;20.23;55.82;100126.00;5036075;28;4200;-80
2022/01/06 01:43:59;;;;;;;;;;;;;;;20.23;55.44;100126.00;5038698;28;5063;-80
2022/01/06 01:46:29;;;;;;;;;;;;;;;20.20;55.73;100127.31;5037993;28;5214;-79
2022/01/06 01:49:15;;;;;;;;;;;;;;;20.22;55.49;100125.25;5038762;28;4223;-80
2022/01/06 01:51:41;;;;;;;;;;;;;;;20.18;55.74;100133.00;5036057;28;4190;-80
2022/01/06 01:54:08;;;;;;;;;;;;;;;20.14;55.71;100144.38;5035635;28;4224;-80
2022/01/06 01:56:34;;;;;;;;;;;;;;;20.18;55.29;100144.50;5037423;28;4028;-79
2022/01/06 01:59:00;;;;;;;;;;;;;;;20.17;55.28;100145.91;5035611;28;4242;-79
2022/01/06 02:01:27;;;;;;;;;;;;;;;20.20;55.27;100142.44;5034363;28;4973;-78
2022/01/06 02:03:53;;;;;;;;;;;;;;;20.23;55.15;100143.25;5019897;28;4192;-78
2022/01/06 02:06:20;;;;;;;;;;;;;;;20.23;55.42;100146.13;5050246;28;4198;-79
2022/01/06 02:08:46;;;;;;;;;;;;;;;20.17;55.37;100152.38;5037619;28;4204;-78
2022/01/06 02:11:12;;;;;;;;;;;;;;;20.28;55.03;100156.38;5035214;28;4044;-78
2022/01/06 02:13:45;;;;;;;;;;;;;;;20.15;55.42;100152.31;5035624;28;4191;-79
2022/01/06 02:16:12;;;;;;;;;;;;;;;20.14;55.57;100159.47;5036982;28;4494;-79
2022/01/06 02:18:38;;;;;;;;;;;;;;;20.11;55.90;100174.41;5037412;28;3957;-78
2022/01/06 02:21:04;;;;;;;;;;;;;;;20.11;55.59;100180.91;5035503;28;4698;-79
2022/01/06 02:23:31;;;;;;;;;;;;;;;20.19;55.40;100184.09;5034845;28;4386;-78
2022/01/06 02:25:57;;;;;;;;;;;;;;;20.17;55.24;100189.75;5037523;28;4029;-78
2022/01/06 02:28:23;;;;;;;;;;;;;;;20.08;55.66;100185.84;5032777;28;4145;-79
2022/01/06 02:30:51;;;;;;;;;;;;;;;20.18;55.38;100199.88;5033915;28;4267;-79
2022/01/06 02:33:18;;;;;;;;;;;;;;;20.07;56.03;100203.75;5033574;28;4164;-78
2022/01/06 02:35:45;;;;;;;;;;;;;;;20.14;55.45;100216.97;5014980;28;4610;-78
2022/01/06 02:38:11;;;;;;;;;;;;;;;20.09;55.84;100210.31;5012968;28;4317;-78
2022/01/06 02:40:38;;;;;;;;;;;;;;;20.13;55.65;100223.34;5014738;28;6881;-80
2022/01/06 02:43:06;;;;;;;;;;;;;;;20.13;55.60;100214.75;5015980;28;4159;-80
2022/01/06 02:45:33;;;;;;;;;;;;;;;20.15;55.16;100234.94;5016510;28;4235;-81
2022/01/06 02:48:00;;;;;;;;;;;;;;;20.11;55.37;100229.75;5014910;28;4156;-81
2022/01/06 02:50:27;;;;;;;;;;;;;;;20.06;55.68;100239.63;5016379;28;3967;-80
2022/01/06 02:52:53;;;;;;;;;;;;;;;20.05;55.59;100250.41;5014643;28;4157;-80
2022/01/06 02:55:19;;;;;;;;;;;;;;;20.15;55.12;100252.19;5015799;28;4639;-80
2022/01/06 02:57:46;;;;;;;;;;;;;;;20.11;55.23;100257.78;5013447;28;4149;-81
2022/01/06 03:00:15;;;;;;;;;;;;;;;20.18;54.98;100259.47;5014597;28;4218;-81
2022/01/06 03:02:43;;;;;;;;;;;;;;;20.20;55.18;100277.56;5016516;28;4236;-80
2022/01/06 03:05:10;;;;;;;;;;;;;;;20.06;54.93;100277.00;5015046;28;4103;-80
2022/01/06 03:07:36;;;;;;;;;;;;;;;20.11;54.76;100281.50;5015287;28;4279;-82
2022/01/06 03:10:04;;;;;;;;;;;;;;;20.16;55.36;100302.50;5014729;28;4072;-81
2022/01/06 03:12:39;;;;;;;;;;;;;;;20.14;54.93;100302.47;5014779;28;4239;-81
2022/01/06 03:15:05;;;;;;;;;;;;;;;20.17;55.07;100318.38;5016148;28;4058;-81
2022/01/06 03:17:32;;;;;;;;;;;;;;;20.15;54.96;100324.03;5014590;28;4259;-81
2022/01/06 03:19:58;;;;;;;;;;;;;;;20.09;55.14;100325.28;5016587;28;4072;-82
2022/01/06 03:22:24;;;;;;;;;;;;;;;20.16;54.96;100334.13;5015071;28;4127;-81
2022/01/06 03:24:51;;;;;;;;;;;;;;;20.07;55.20;100345.34;5015441;28;4366;-81
2022/01/06 03:27:17;;;;;;;;;;;;;;;20.07;55.47;100350.34;5014395;28;4067;-82
2022/01/06 03:29:44;;;;;;;;;;;;;;;20.11;54.96;100346.88;5036905;28;4238;-82
2022/01/06 03:32:10;;;;;;;;;;;;;;;20.06;55.17;100354.59;5036159;28;4240;-81
2022/01/06 03:34:37;;;;;;;;;;;;;;;20.09;55.10;100371.28;5032339;28;4133;-81
2022/01/06 03:37:06;;;;;;;;;;;;;;;20.11;55.14;100372.75;5031951;28;4365;-81
2022/01/06 03:39:32;;;;;;;;;;;;;;;20.15;54.87;100372.91;5032328;28;4226;-81
2022/01/06 03:41:59;;;;;;;;;;;;;;;20.06;55.11;100377.59;5035222;28;4372;-80
2022/01/06 03:44:25;;;;;;;;;;;;;;;20.05;55.30;100394.09;5033178;28;5403;-79
2022/01/06 03:46:53;;;;;;;;;;;;;;;20.09;55.11;100393.53;5034482;28;4109;-80
2022/01/06 03:49:20;;;;;;;;;;;;;;;19.98;55.00;100401.00;5034046;28;4163;-79
2022/01/06 03:51:46;;;;;;;;;;;;;;;20.02;55.30;100406.94;5017177;28;4199;-79
2022/01/06 03:54:12;;;;;;;;;;;;;;;20.10;54.54;100412.25;5032980;28;4114;-79
2022/01/06 03:56:39;;;;;;;;;;;;;;;20.09;55.16;100405.78;5026041;28;4231;-79
2022/01/06 03:59:05;;;;;;;;;;;;;;;20.13;54.75;100418.81;5035427;28;4290;-79
2022/01/06 04:01:31;;;;;;;;;;;;;;;20.09;54.89;100428.03;5030648;28;4145;-79
2022/01/06 04:03:58;;;;;;;;;;;;;;;20.02;55.13;100441.41;5035268;28;4258;-79
2022/01/06 04:06:25;;;;;;;;;;;;;;;20.09;54.64;100433.78;5029256;28;4195;-79
2022/01/06 04:08:51;;;;;;;;;;;;;;;20.11;54.81;100447.47;5034380;28;4048;-79
2022/01/06 04:11:17;;;;;;;;;;;;;;;20.24;54.40;100455.22;5029211;28;3997;-78
2022/01/06 04:13:44;;;;;;;;;;;;;;;20.08;55.05;100458.91;5035929;28;4117;-78
2022/01/06 04:16:13;;;;;;;;;;;;;;;20.10;54.87;100458.25;5033350;28;3968;-78
2022/01/06 04:18:40;;;;;;;;;;;;;;;20.11;54.71;100464.72;5033246;28;4370;-78
2022/01/06 04:21:07;;;;;;;;;;;;;;;20.05;55.09;100465.97;5033668;28;4067;-78
2022/01/06 04:23:33;;;;;;;;;;;;;;;20.16;54.69;100477.88;5033848;28;4093;-82
2022/01/06 04:25:59;;;;;;;;;;;;;;;20.05;54.95;100491.81;5027109;28;4263;-82
2022/01/06 04:28:26;;;;;;;;;;;;;;;20.09;55.06;100500.63;5033310;28;4322;-81
2022/01/06 04:30:52;;;;;;;;;;;;;;;20.01;54.96;100496.66;5034370;28;4249;-82
2022/01/06 04:33:18;;;;;;;;;;;;;;;20.08;55.04;100512.78;5033495;28;4179;-80
2022/01/06 04:35:45;;;;;;;;;;;;;;;20.00;55.12;100510.31;5033618;28;4176;-82
2022/01/06 04:38:11;;;;;;;;;;;;;;;20.02;54.99;100515.38;5036922;28;4223;-82
2022/01/06 04:40:38;;;;;;;;;;;;;;;20.02;54.78;100507.53;5036639;28;4194;-81
2022/01/06 04:43:04;;;;;;;;;;;;;;;19.99;54.97;100511.69;5037543;28;4589;-81
2022/01/06 04:45:30;;;;;;;;;;;;;;;19.98;55.22;100510.22;5036865;28;4101;-81
2022/01/06 04:47:57;;;;;;;;;;;;;;;20.04;55.03;100524.84;5036822;28;5292;-81
2022/01/06 04:50:23;;;;;;;;;;;;;;;20.04;54.84;100524.84;5035860;28;4168;-82
2022/01/06 04:52:49;;;;;;;;;;;;;;;20.14;54.78;100521.66;5036532;28;5352;-82
2022/01/06 04:55:16;;;;;;;;;;;;;;;20.15;54.79;100528.13;5034568;28;4190;-82
2022/01/06 04:57:42;;;;;;;;;;;;;;;20.11;55.09;100525.09;5033790;28;4199;-81
2022/01/06 05:00:08;;;;;;;;;;;;;;;20.00;55.19;100539.03;5036060;28;4050;-81
2022/01/06 05:02:35;;;;;;;;;;;;;;;20.05;54.85;100537.81;5032818;28;4101;-80
2022/01/06 05:05:01;;;;;;;;;;;;;;;20.01;55.17;100536.91;5036282;28;4072;-80
2022/01/06 05:07:28;;;;;;;;;;;;;;;20.03;55.09;100543.47;5031378;28;4365;-79
2022/01/06 05:09:54;;;;;;;;;;;;;;;20.11;54.72;100536.59;5036185;28;4272;-80
2022/01/06 05:12:22;;;;;;;;;;;;;;;20.04;55.17;100539.22;5039586;28;4237;-80
2022/01/06 05:14:48;;;;;;;;;;;;;;;20.08;54.82;100544.38;5042537;28;4257;-80
2022/01/06 05:17:15;;;;;;;;;;;;;;;20.05;54.64;100549.31;5037952;28;4231;-80
2022/01/06 05:19:42;;;;;;;;;;;;;;;20.01;55.10;100546.25;5033337;28;4599;-81
2022/01/06 05:22:09;;;;;;;;;;;;;;;20.18;54.80;100552.69;5036776;28;5358;-81
2022/01/06 05:24:37;;;;;;;;;;;;;;;20.06;54.85;100552.91;5035472;28;4189;-81
2022/01/06 05:27:09;;;;;;;;;;;;;;;20.05;55.00;100562.94;5034778;28;4186;-78
2022/01/06 05:29:35;;;;;;;;;;;;;;;20.05;55.13;100572.31;5038536;28;4213;-80
2022/01/06 05:32:02;;;;;;;;;;;;;;;20.10;54.75;100567.47;5030895;28;4868;-79
2022/01/06 05:34:28;;;;;;;;;;;;;;;20.00;55.25;100582.16;5037708;28;4310;-80
2022/01/06 05:36:54;;;;;;;;;;;;;;;20.04;54.92;100593.84;5036242;28;5096;-80
2022/01/06 05:39:21;;;;;;;;;;;;;;;19.95;55.43;100597.75;5035878;28;4231;-80
2022/01/06 05:41:47;;;;;;;;;;;;;;;20.04;54.92;100602.47;5035836;28;4322;-79
2022/01/06 05:44:13;;;;;;;;;;;;;;;20.02;55.33;100608.13;5033335;28;4286;-80
2022/01/06 05:46:40;;;;;;;;;;;;;;;20.11;54.69;100612.06;5036062;28;4115;-81
2022/01/06 05:49:06;;;;;;;;;;;;;;;20.09;54.92;100620.63;5036375;28;4069;-81
2022/01/06 05:51:32;;;;;;;;;;;;;;;19.97;55.08;100622.94;5033097;28;5330;-79
2022/01/06 05:53:59;;;;;;;;;;;;;;;20.05;55.14;100631.94;5031069;28;4162;-80
2022/01/06 05:56:27;;;;;;;;;;;;;;;20.08;54.77;100642.13;5032503;28;4473;-76
2022/01/06 05:58:53;;;;;;;;;;;;;;;20.06;55.08;100642.75;5036675;28;4229;-74
2022/01/06 06:01:20;;;;;;;;;;;;;;;20.01;55.07;100641.09;5030726;28;4309;-77
2022/01/06 06:03:46;;;;;;;;;;;;;;;20.08;55.02;100645.72;5034196;28;4121;-74
2022/01/06 06:06:13;;;;;;;;;;;;;;;19.97;55.53;100646.66;5034076;28;4179;-72
2022/01/06 06:08:39;;;;;;;;;;;;;;;19.99;55.63;100643.88;5033042;28;4182;-68
2022/01/06 06:11:06;;;;;;;;;;;;;;;19.93;56.63;100652.25;5033887;28;5307;-72
2022/01/06 06:13:32;;;;;;;;;;;;;;;19.99;56.65;100654.66;5035252;28;5442;-68
2022/01/06 06:15:58;;;;;;;;;;;;;;;20.02;56.85;100665.59;5034640;28;5435;-71
2022/01/06 06:18:25;;;;;;;;;;;;;;;19.97;57.48;100674.66;5032330;28;4215;-70
2022/01/06 06:20:52;;;;;;;;;;;;;;;19.99;57.67;100666.88;5023860;28;4141;-72
2022/01/06 06:23:19;;;;;;;;;;;;;;;19.76;58.31;100681.63;5029118;28;4228;-69
2022/01/06 06:25:46;;;;;;;;;;;;;;;19.62;59.00;100685.28;5032676;28;4261;-68
2022/01/06 06:28:13;;;;;;;;;;;;;;;19.73;58.78;100697.31;5031439;28;4220;-68
2022/01/06 06:30:39;;;;;;;;;;;;;;;19.83;58.63;100712.13;5033911;28;4216;-69
2022/01/06 06:33:05;;;;;;;;;;;;;;;19.78;58.06;100716.22;5032510;28;4235;-68
2022/01/06 06:35:32;;;;;;;;;;;;;;;19.77;58.70;100708.97;5033915;28;4221;-67
2022/01/06 06:37:58;;;;;;;;;;;;;;;19.81;58.28;100720.66;5029363;28;5487;-68
2022/01/06 06:40:25;;;;;;;;;;;;;;;19.83;58.01;100717.88;5030837;28;4293;-69
2022/01/06 06:42:51;;;;;;;;;;;;;;;19.72;58.89;100725.28;5031677;28;4077;-69
2022/01/06 06:45:19;;;;;;;;;;;;;;;19.18;59.65;100738.47;5030712;28;4138;-65
2022/01/06 06:48:22;;;;;;;;;;;;;;;18.62;61.42;100741.41;5013687;28;4200;-64
2022/01/06 06:50:48;;;;;;;;;;;;;;;18.36;61.87;100746.50;5038303;28;4227;-64
2022/01/06 06:53:15;;;;;;;;;;;;;;;18.35;62.45;100753.63;5028971;28;4273;-64
2022/01/06 06:55:41;;;;;;;;;;;;;;;18.34;62.55;100749.28;5033295;28;4122;-64
2022/01/06 06:58:07;;;;;;;;;;;;;;;18.35;62.67;100761.50;5026259;28;4083;-65
2022/01/06 07:00:34;;;;;;;;;;;;;;;18.32;62.62;100768.50;5033511;28;4107;-64
2022/01/06 07:03:00;;;;;;;;;;;;;;;18.32;62.70;100766.34;5035100;28;4725;-64
2022/01/06 07:05:28;;;;;;;;;;;;;;;18.30;61.34;100769.13;5033177;28;4138;-64
2022/01/06 07:07:54;;;;;;;;;;;;;;;18.26;61.84;100771.03;5033209;28;4226;-65
2022/01/06 07:10:20;;;;;;;;;;;;;;;18.30;62.70;100788.44;5035017;28;5300;-65
2022/01/06 07:12:47;;;;;;;;;;;;;;;18.28;62.49;100791.97;5034399;28;5510;-64
2022/01/06 07:15:13;;;;;;;;;;;;;;;18.25;62.34;100795.34;5031819;28;4081;-63
2022/01/06 07:17:40;;;;;;;;;;;;;;;18.22;62.21;100794.50;5031792;28;4167;-64
2022/01/06 07:20:07;;;;;;;;;;;;;;;18.23;62.49;100795.22;5032903;28;6329;-64
2022/01/06 07:22:33;;;;;;;;;;;;;;;18.18;62.31;100800.00;5032550;28;4225;-64
2022/01/06 07:25:01;;;;;;;;;;;;;;;18.27;62.45;100807.66;5032629;28;4259;-65
2022/01/06 07:27:27;;;;;;;;;;;;;;;18.25;62.29;100810.41;5031333;28;4234;-63
2022/01/06 07:29:54;;;;;;;;;;;;;;;18.27;62.03;100819.13;5030083;28;4288;-62
2022/01/06 07:32:20;;;;;;;;;;;;;;;18.26;61.54;100819.78;5030725;28;5385;-63
2022/01/06 07:34:46;;;;;;;;;;;;;;;18.32;61.66;100835.16;5033591;28;4163;-63
2022/01/06 07:37:13;;;;;;;;;;;;;;;18.30;62.34;100851.50;5031388;28;4331;-63
2022/01/06 07:39:39;;;;;;;;;;;;;;;18.32;63.42;100843.75;5031876;28;4251;-63
2022/01/06 07:42:06;;;;;;;;;;;;;;;18.34;63.32;100851.72;5033423;28;5800;-65
2022/01/06 07:44:34;;;;;;;;;;;;;;;18.35;62.71;100853.22;5026788;28;4193;-66
2022/01/06 07:47:01;;;;;;;;;;;;;;;18.28;63.62;100860.75;5030179;28;4139;-66
2022/01/06 07:49:27;;;;;;;;;;;;;;;18.35;62.98;100856.84;5028462;28;4198;-66
2022/01/06 07:51:54;;;;;;;;;;;;;;;18.44;63.18;100855.16;5030562;28;5206;-67
2022/01/06 07:54:21;;;;;;;;;;;;;;;18.32;63.48;100860.97;5026535;28;4838;-65
2022/01/06 07:56:47;;;;;;;;;;;;;;;18.28;62.95;100871.44;5029259;28;4246;-65
2022/01/06 07:59:13;;;;;;;;;;;;;;;18.23;63.78;100864.00;5033789;28;4180;-65
2022/01/06 08:01:40;;;;;;;;;;;;;;;18.24;63.26;100871.25;5032099;28;4180;-66
2022/01/06 08:04:06;;;;;;;;;;;;;;;18.23;62.85;100870.47;5032124;28;4246;-66
2022/01/06 08:06:33;;;;;;;;;;;;;;;18.21;62.29;100879.00;5032404;28;4209;-65
2022/01/06 08:08:59;;;;;;;;;;;;;;;18.26;62.40;100889.31;5033300;28;4243;-65
2022/01/06 08:11:25;;;;;;;;;;;;;;;18.25;62.28;100893.53;5036775;28;4235;-66
2022/01/06 08:13:52;;;;;;;;;;;;;;;18.22;62.84;100900.53;5037542;28;4224;-65
2022/01/06 08:16:18;;;;;;;;;;;;;;;18.21;62.67;100913.38;5036020;28;4091;-66
2022/01/06 08:18:45;;;;;;;;;;;;;;;18.18;62.07;100920.38;5035345;28;4046;-66
2022/01/06 08:21:11;;;;;;;;;;;;;;;18.19;62.05;100924.75;5039126;28;4560;-66
2022/01/06 08:23:37;;;;;;;;;;;;;;;18.17;63.16;100919.63;5036116;28;4011;-65
2022/01/06 08:26:04;;;;;;;;;;;;;;;18.16;62.47;100928.84;5051263;28;4203;-66
2022/01/06 08:28:30;;;;;;;;;;;;;;;18.13;63.04;100918.66;5036944;28;4241;-66
2022/01/06 08:30:56;;;;;;;;;;;;;;;18.15;63.01;100930.97;5036851;28;5341;-65
2022/01/06 08:33:23;;;;;;;;;;;;;;;18.14;62.71;100935.22;5032942;28;5311;-65
2022/01/06 08:35:49;;;;;;;;;;;;;;;18.13;62.82;100947.31;5036391;28;4266;-65
2022/01/06 08:38:16;;;;;;;;;;;;;;;18.13;63.10;100948.06;5035722;28;4093;-65
2022/01/06 08:40:42;;;;;;;;;;;;;;;18.17;62.03;100947.56;5036150;28;5694;-64
2022/01/06 08:43:08;;;;;;;;;;;;;;;18.15;62.01;100951.03;5036681;28;4293;-64
2022/01/06 08:45:35;;;;;;;;;;;;;;;18.19;62.01;100962.00;5036722;28;4196;-66
2022/01/06 08:48:01;;;;;;;;;;;;;;;18.21;62.66;100960.00;5033798;28;5672;-65
2022/01/06 08:50:28;;;;;;;;;;;;;;;18.22;61.73;100960.72;5035803;28;4227;-65
2022/01/06 08:52:55;;;;;;;;;;;;;;;18.23;62.33;100955.75;5036711;28;4370;-64
2022/01/06 08:55:22;;;;;;;;;;;;;;;18.28;61.72;100958.22;5033547;28;5263;-66
2022/01/06 08:57:48;;;;;;;;;;;;;;;18.29;61.72;100965.44;5029588;28;5162;-67
2022/01/06 09:00:15;;;;;;;;;;;;;;;18.27;62.07;100979.66;5037181;28;4155;-66
2022/01/06 09:02:41;;;;;;;;;;;;;;;18.24;62.42;100986.66;5036467;28;4214;-64
2022/01/06 09:05:10;;;;;;;;;;;;;;;18.28;63.04;100981.16;5036656;28;5157;-67
2022/01/06 09:07:36;;;;;;;;;;;;;;;18.26;62.07;100998.22;5037053;28;4008;-67
2022/01/06 09:10:03;;;;;;;;;;;;;;;18.21;60.79;100999.38;5038625;28;4156;-67
2022/01/06 09:12:29;;;;;;;;;;;;;;;18.23;62.40;100996.59;5020722;28;4398;-65
2022/01/06 09:14:55;;;;;;;;;;;;;;;18.26;62.10;101008.97;5035947;28;4381;-66
2022/01/06 09:17:22;;;;;;;;;;;;;;;18.06;61.94;101020.00;5033901;28;5315;-65
2022/01/06 09:19:48;;;;;;;;;;;;;;;18.08;60.11;101020.84;5036193;28;6336;-66
2022/01/06 09:22:14;;;;;;;;;;;;;;;18.12;60.36;101026.81;5036088;28;4108;-63
2022/01/06 09:24:41;;;;;;;;;;;;;;;18.17;61.45;101039.28;5033162;28;4193;-64
2022/01/06 09:27:07;;;;;;;;;;;;;;;18.20;61.55;101035.13;5036927;28;5401;-62
2022/01/06 09:29:34;;;;;;;;;;;;;;;18.16;62.01;101046.34;5036713;28;4230;-64
2022/01/06 09:32:01;;;;;;;;;;;;;;;18.18;62.10;101052.94;5036668;28;4222;-63
2022/01/06 09:34:27;;;;;;;;;;;;;;;18.24;59.99;101046.84;5036395;28;4232;-63
2022/01/06 09:36:53;;;;;;;;;;;;;;;18.20;62.02;101043.72;5035337;28;4148;-62
2022/01/06 09:39:20;;;;;;;;;;;;;;;18.25;60.85;101044.72;5037630;28;4084;-68
2022/01/06 09:41:48;;;;;;;;;;;;;;;18.25;60.79;101048.31;5038801;28;4015;-62
2022/01/06 09:44:14;;;;;;;;;;;;;;;18.22;59.12;101049.59;5038340;28;4199;-63
2022/01/06 09:47:01;;;;;;;;;;;;;;;18.28;60.18;101055.69;5020471;28;5424;-61
2022/01/06 09:49:28;;;;;;;;;;;;;;;18.28;59.01;101055.69;5037079;28;4207;-63
2022/01/06 09:51:55;;;;;;;;;;;;;;;18.33;60.29;101057.41;5037938;28;4063;-62
2022/01/06 09:54:21;;;;;;;;;;;;;;;18.33;60.05;101063.13;5034572;28;5230;-64
2022/01/06 09:56:48;;;;;;;;;;;;;;;18.34;60.56;101064.63;5036850;28;4480;-63
2022/01/06 09:59:14;;;;;;;;;;;;;;;18.41;60.76;101069.31;5036711;28;4273;-63
2022/01/06 10:01:41;;;;;;;;;;;;;;;18.37;60.06;101071.97;5036138;28;5266;-64
2022/01/06 10:04:16;;;;;;;;;;;;;;;18.44;60.46;101073.06;5035749;28;4070;-63
2022/01/06 10:06:42;;;;;;;;;;;;;;;18.40;60.03;101070.72;5035474;28;4237;-64
2022/01/06 10:09:09;;;;;;;;;;;;;;;18.47;60.31;101088.28;5036982;28;4211;-64
2022/01/06 10:11:35;;;;;;;;;;;;;;;18.54;60.27;101087.25;5020505;28;4106;-64
2022/01/06 10:14:08;;;;;;;;;;;;;;;18.48;60.26;101084.75;5036951;28;4119;-63
2022/01/06 10:16:35;;;;;;;;;;;;;;;18.33;58.89;101080.34;5033698;28;4411;-64
2022/01/06 10:19:03;;;;;;;;;;;;;;;18.48;60.28;101093.38;5052091;28;4354;-64
2022/01/06 10:21:35;;;;;;;;;;;;;;;18.47;60.10;101088.28;5038003;28;4548;-64
2022/01/06 10:24:21;;;;;;;;;;;;;;;18.42;60.88;101096.63;5019771;28;4269;-64
2022/01/06 10:27:06;;;;;;;;;;;;;;;18.52;60.46;101104.34;5034872;28;5740;-66
2022/01/06 10:29:33;;;;;;;;;;;;;;;18.53;60.56;101102.94;5034885;28;4344;-64
2022/01/06 10:32:01;;;;;;;;;;;;;;;18.38;59.46;101093.53;5037504;28;4232;-64
2022/01/06 10:34:34;;;;;;;;;;;;;;;18.41;61.16;101103.72;5035713;28;4151;-64
2022/01/06 10:37:00;;;;;;;;;;;;;;;18.41;61.46;101103.72;5035442;28;4212;-64
2022/01/06 10:39:38;;;;;;;;;;;;;;;18.39;61.63;101102.88;5034083;28;4280;-64
2022/01/06 10:42:05;;;;;;;;;;;;;;;18.43;61.16;101100.97;5036763;28;4258;-63
2022/01/06 10:44:32;;;;;;;;;;;;;;;18.43;60.75;101095.25;5034508;28;4190;-65
2022/01/06 10:46:58;;;;;;;;;;;;;;;18.43;61.37;101109.59;5034867;28;4310;-65
2022/01/06 10:49:25;;;;;;;;;;;;;;;18.41;60.39;101109.47;5034512;28;4214;-65
2022/01/06 10:51:52;;;;;;;;;;;;;;;18.45;60.77;101108.97;5035181;28;4226;-65
2022/01/06 10:54:20;;;;;;;;;;;;;;;18.51;60.58;101120.03;5035203;28;4052;-64
2022/01/06 10:56:57;;;;;;;;;;;;;;;18.90;58.71;101117.28;5034437;28;4173;-72
2022/01/06 10:59:24;;;;;;;;;;;;;;;18.59;58.69;101117.66;5037848;28;4197;-74
2022/01/06 11:01:50;;;;;;;;;;;;;;;18.43;59.54;101123.19;5034679;28;3995;-70
2022/01/06 11:04:17;;;;;;;;;;;;;;;18.35;60.39;101129.19;5035208;28;4052;-71
2022/01/06 11:06:43;;;;;;;;;;;;;;;18.34;60.40;101127.69;5015656;28;4083;-71
2022/01/06 11:09:11;;;;;;;;;;;;;;;18.29;59.99;101142.44;5017177;28;4073;-71
2022/01/06 11:14:30;;;;;;;;;;;;;;;18.27;60.99;101134.44;5010411;28;4245;-68
2022/01/06 11:16:56;;;;;;;;;;;;;;;18.27;61.20;101150.91;5035042;28;4128;-70
2022/01/06 11:19:23;;;;;;;;;;;;;;;18.26;61.02;101155.91;5035328;28;4228;-73
2022/01/06 11:21:49;;;;;;;;;;;;;;;18.31;60.31;101163.34;5036044;28;3943;-71
2022/01/06 11:24:16;;;;;;;;;;;;;;;18.30;59.20;101166.84;5036095;28;4608;-69
2022/01/06 11:26:43;;;;;;;;;;;;;;;18.31;60.44;101163.34;5032428;28;4158;-72
2022/01/06 11:29:10;;;;;;;;;;;;;;;18.29;60.03;101166.09;5020980;28;4254;-69
2022/01/06 11:31:41;;;;;;;;;;;;;;;18.34;60.04;101162.09;5033132;28;4264;-68
2022/01/06 11:34:17;;;;;;;;;;;;;;;18.46;60.36;101167.06;5037954;28;3976;-67
2022/01/06 11:36:44;;;;;;;;;;;;;;;18.52;60.19;101168.16;5031803;28;5274;-66
2022/01/06 11:39:19;;;;;;;;;;;;;;;18.61;60.61;101160.78;5037719;28;4226;-67
2022/01/06 11:41:45;;;;;;;;;;;;;;;18.60;60.91;101176.53;5033618;28;4117;-69
2022/01/06 11:44:18;;;;;;;;;;;;;;;18.61;60.75;101173.00;5035040;28;5206;-68
2022/01/06 11:46:45;;;;;;;;;;;;;;;18.66;61.52;101176.84;5033353;28;5405;-70
2022/01/06 11:49:12;;;;;;;;;;;;;;;18.69;63.03;101181.34;5031524;28;4148;-66
2022/01/06 11:51:38;;;;;;;;;;;;;;;18.71;62.38;101180.72;5019980;28;5833;-67
2022/01/06 11:54:12;;;;;;;;;;;;;;;18.69;62.40;101177.72;5033804;28;4039;-72
2022/01/06 11:56:47;;;;;;;;;;;;;;;18.64;64.78;101176.72;5027472;28;4347;-67
2022/01/06 11:59:14;;;;;;;;;;;;;;;18.55;65.40;101177.63;5030004;28;4437;-68
2022/01/06 12:01:47;;;;;;;;;;;;;;;18.50;65.60;101185.25;5030738;28;4362;-67
2022/01/06 12:04:14;;;;;;;;;;;;;;;18.50;65.65;101187.38;5034445;28;4304;-68
2022/01/06 12:06:41;;;;;;;;;;;;;;;18.48;65.43;101175.78;5030205;28;4188;-69
2022/01/06 12:09:22;;;;;;;;;;;;;;;18.48;65.66;101198.72;5031083;28;4266;-68
2022/01/06 12:12:02;;;;;;;;;;;;;;;18.50;65.54;101193.13;5032139;28;5345;-68
2022/01/06 12:14:28;;;;;;;;;;;;;;;18.50;65.26;101195.97;5028658;28;4147;-65
2022/01/06 12:17:00;;;;;;;;;;;;;;;18.50;65.30;101188.13;5029549;28;4267;-67
2022/01/06 12:19:27;;;;;;;;;;;;;;;18.49;65.61;101195.25;5033500;28;4284;-71
2022/01/06 12:21:53;;;;;;;;;;;;;;;18.50;65.25;101202.47;5031100;28;4075;-69
2022/01/06 12:24:19;;;;;;;;;;;;;;;18.52;64.04;101193.97;5035354;28;5513;-68
2022/01/06 12:26:46;;;;;;;;;;;;;;;18.54;64.77;101199.84;5031611;28;4280;-67
2022/01/06 12:29:14;;;;;;;;;;;;;;;18.53;64.65;101211.91;5032768;28;4258;-70
2022/01/06 12:31:41;;;;;;;;;;;;;;;18.49;64.72;101203.09;5031609;28;5391;-72
2022/01/06 12:34:08;;;;;;;;;;;;;;;18.50;65.22;101207.44;5033972;28;4562;-67
2022/01/06 12:36:35;;;;;;;;;;;;;;;18.51;64.85;101203.97;5033916;28;4157;-67
2022/01/06 12:39:05;;;;;;;;;;;;;;;18.57;64.76;101206.44;5034040;28;4378;-67
2022/01/06 12:41:34;;;;;;;;;;;;;;;18.56;64.85;101204.94;5033948;28;4196;-67
2022/01/06 12:44:01;;;;;;;;;;;;;;;18.59;64.93;101209.44;5031891;28;4233;-67
2022/01/06 12:46:31;;;;;;;;;;;;;;;18.54;65.10;101202.69;5032232;28;4036;-68
2022/01/06 12:48:57;;;;;;;;;;;;;;;18.59;65.23;101197.94;5035502;28;4305;-67
2022/01/06 12:51:24;;;;;;;;;;;;;;;18.60;65.22;101199.47;5029947;28;4225;-68
2022/01/06 12:53:51;;;;;;;;;;;;;;;18.59;65.58;101210.16;5035569;28;3987;-67
2022/01/06 12:56:22;;;;;;;;;;;;;;;18.58;66.00;101207.94;5033399;28;4246;-67